sensor_id;sensor_type;location;lat;lon;timestamp;temperature;humidity
9915;DHT22;4996;48.746;9.174;2023-06-10T00:00:53;21.30;92.00
9915;DHT22;4996;48.746;9.174;2023-06-10T00:03:18;21.30;92.20
9915;DHT22;4996;48.746;9.174;2023-06-10T00:05:44;21.20;92.50
9915;DHT22;4996;48.746;9.174;2023-06-10T00:08:10;21.20;92.70
9915;DHT22;4996;48.746;9.174;2023-06-10T00:10:38;21.10;92.90
9915;DHT22;4996;48.746;9.174;2023-06-10T00:13:05;21.00;93.30
9915;DHT22;4996;48.746;9.174;2023-06-10T00:15:33;20.90;93.60
9915;DHT22;4996;48.746;9.174;2023-06-10T00:17:59;21.00;93.90
9915;DHT22;4996;48.746;9.174;2023-06-10T00:20:26;21.00;94.10
9915;DHT22;4996;48.746;9.174;2023-06-10T00:22:52;21.00;94.30
9915;DHT22;4996;48.746;9.174;2023-06-10T00:25:18;21.00;94.40
9915;DHT22;4996;48.746;9.174;2023-06-10T00:27:44;21.00;94.50
9915;DHT22;4996;48.746;9.174;2023-06-10T00:30:10;21.00;94.70
9915;DHT22;4996;48.746;9.174;2023-06-10T00:32:36;21.00;94.90
9915;DHT22;4996;48.746;9.174;2023-06-10T00:35:03;20.90;95.10
9915;DHT22;4996;48.746;9.174;2023-06-10T00:37:29;20.90;95.40
9915;DHT22;4996;48.746;9.174;2023-06-10T00:39:55;20.90;95.80
9915;DHT22;4996;48.746;9.174;2023-06-10T00:42:21;20.80;96.20
9915;DHT22;4996;48.746;9.174;2023-06-10T00:44:52;20.80;96.70
9915;DHT22;4996;48.746;9.174;2023-06-10T00:47:17;20.70;97.00
9915;DHT22;4996;48.746;9.174;2023-06-10T00:49:44;20.70;97.40
9915;DHT22;4996;48.746;9.174;2023-06-10T00:52:11;20.70;97.90
9915;DHT22;4996;48.746;9.174;2023-06-10T00:54:37;20.60;98.20
9915;DHT22;4996;48.746;9.174;2023-06-10T00:57:04;20.60;98.70
9915;DHT22;4996;48.746;9.174;2023-06-10T00:59:31;20.60;99.10
9915;DHT22;4996;48.746;9.174;2023-06-10T01:01:57;20.50;99.80
9915;DHT22;4996;48.746;9.174;2023-06-10T01:04:23;20.50;99.90
9915;DHT22;4996;48.746;9.174;2023-06-10T01:07:43;20.50;99.90
9915;DHT22;4996;48.746;9.174;2023-06-10T01:09:49;20.40;99.90
9915;DHT22;4996;48.746;9.174;2023-06-10T01:14:55;20.40;99.90
9915;DHT22;4996;48.746;9.174;2023-06-10T01:17:20;20.30;99.90
9915;DHT22;4996;48.746;9.174;2023-06-10T01:19:57;20.30;99.90
9915;DHT22;4996;48.746;9.174;2023-06-10T01:22:24;20.30;99.90
9915;DHT22;4996;48.746;9.174;2023-06-10T01:24:49;20.30;99.90
9915;DHT22;4996;48.746;9.174;2023-06-10T01:27:16;20.30;99.90
9915;DHT22;4996;48.746;9.174;2023-06-10T01:29:46;20.30;99.90
9915;DHT22;4996;48.746;9.174;2023-06-10T01:32:18;20.20;99.90
9915;DHT22;4996;48.746;9.174;2023-06-10T01:34:45;20.20;99.90
9915;DHT22;4996;48.746;9.174;2023-06-10T01:37:13;20.20;99.90
9915;DHT22;4996;48.746;9.174;2023-06-10T01:39:40;20.20;99.90
9915;DHT22;4996;48.746;9.174;2023-06-10T01:42:08;20.20;99.90
9915;DHT22;4996;48.746;9.174;2023-06-10T01:44:35;20.20;99.90
9915;DHT22;4996;48.746;9.174;2023-06-10T01:47:01;20.20;99.90
9915;DHT22;4996;48.746;9.174;2023-06-10T01:49:26;20.20;99.90
9915;DHT22;4996;48.746;9.174;2023-06-10T01:51:53;20.10;99.90
9915;DHT22;4996;48.746;9.174;2023-06-10T01:54:19;20.20;99.90
9915;DHT22;4996;48.746;9.174;2023-06-10T01:56:44;20.10;99.90
9915;DHT22;4996;48.746;9.174;2023-06-10T01:59:10;20.10;99.90
9915;DHT22;4996;48.746;9.174;2023-06-10T02:01:35;20.10;99.90
9915;DHT22;4996;48.746;9.174;2023-06-10T02:04:01;20.10;99.90
9915;DHT22;4996;48.746;9.174;2023-06-10T02:06:26;20.10;99.90
9915;DHT22;4996;48.746;9.174;2023-06-10T02:08:52;20.10;99.90
9915;DHT22;4996;48.746;9.174;2023-06-10T02:11:17;20.00;99.90
9915;DHT22;4996;48.746;9.174;2023-06-10T02:13:43;19.90;99.90
9915;DHT22;4996;48.746;9.174;2023-06-10T02:16:08;20.00;99.90
9915;DHT22;4996;48.746;9.174;2023-06-10T02:18:38;19.90;99.90
9915;DHT22;4996;48.746;9.174;2023-06-10T02:21:06;19.90;99.90
9915;DHT22;4996;48.746;9.174;2023-06-10T02:23:32;19.80;99.90
9915;DHT22;4996;48.746;9.174;2023-06-10T02:25:57;19.80;99.90
9915;DHT22;4996;48.746;9.174;2023-06-10T02:28:23;19.80;99.90
9915;DHT22;4996;48.746;9.174;2023-06-10T02:30:48;19.80;99.90
9915;DHT22;4996;48.746;9.174;2023-06-10T02:33:14;19.70;99.90
9915;DHT22;4996;48.746;9.174;2023-06-10T02:35:40;19.70;99.90
9915;DHT22;4996;48.746;9.174;2023-06-10T02:38:06;19.70;99.90
9915;DHT22;4996;48.746;9.174;2023-06-10T02:40:32;19.60;99.90
9915;DHT22;4996;48.746;9.174;2023-06-10T02:42:58;19.60;99.90
9915;DHT22;4996;48.746;9.174;2023-06-10T02:45:24;19.50;99.90
9915;DHT22;4996;48.746;9.174;2023-06-10T02:47:49;19.50;99.90
9915;DHT22;4996;48.746;9.174;2023-06-10T02:50:15;19.50;99.90
9915;DHT22;4996;48.746;9.174;2023-06-10T02:52:40;19.50;99.90
9915;DHT22;4996;48.746;9.174;2023-06-10T02:55:06;19.50;99.90
9915;DHT22;4996;48.746;9.174;2023-06-10T02:57:32;19.40;99.90
9915;DHT22;4996;48.746;9.174;2023-06-10T02:59:58;19.40;99.90
9915;DHT22;4996;48.746;9.174;2023-06-10T03:02:24;19.30;99.90
9915;DHT22;4996;48.746;9.174;2023-06-10T03:04:56;19.30;99.90
9915;DHT22;4996;48.746;9.174;2023-06-10T03:07:21;19.20;99.90
9915;DHT22;4996;48.746;9.174;2023-06-10T03:09:47;19.20;99.90
9915;DHT22;4996;48.746;9.174;2023-06-10T03:12:12;19.20;99.90
9915;DHT22;4996;48.746;9.174;2023-06-10T03:14:38;19.10;99.90
9915;DHT22;4996;48.746;9.174;2023-06-10T03:17:04;19.10;99.90
9915;DHT22;4996;48.746;9.174;2023-06-10T03:19:30;19.10;99.90
9915;DHT22;4996;48.746;9.174;2023-06-10T03:22:13;19.00;99.90
9915;DHT22;4996;48.746;9.174;2023-06-10T03:24:39;19.00;99.90
9915;DHT22;4996;48.746;9.174;2023-06-10T03:27:08;19.00;99.90
9915;DHT22;4996;48.746;9.174;2023-06-10T03:29:35;19.00;99.90
9915;DHT22;4996;48.746;9.174;2023-06-10T03:32:01;19.00;99.90
9915;DHT22;4996;48.746;9.174;2023-06-10T03:34:27;18.90;99.90
9915;DHT22;4996;48.746;9.174;2023-06-10T03:36:52;18.90;99.90
9915;DHT22;4996;48.746;9.174;2023-06-10T03:39:18;18.90;99.90
9915;DHT22;4996;48.746;9.174;2023-06-10T03:41:43;18.90;99.90
9915;DHT22;4996;48.746;9.174;2023-06-10T03:44:09;18.90;99.90
9915;DHT22;4996;48.746;9.174;2023-06-10T03:46:34;18.90;99.90
9915;DHT22;4996;48.746;9.174;2023-06-10T03:49:00;18.90;99.90
9915;DHT22;4996;48.746;9.174;2023-06-10T03:51:26;18.90;99.90
9915;DHT22;4996;48.746;9.174;2023-06-10T03:53:52;18.90;99.90
9915;DHT22;4996;48.746;9.174;2023-06-10T03:56:18;18.90;99.90
9915;DHT22;4996;48.746;9.174;2023-06-10T03:58:43;18.90;99.90
9915;DHT22;4996;48.746;9.174;2023-06-10T04:01:09;18.80;99.90
9915;DHT22;4996;48.746;9.174;2023-06-10T04:03:36;18.90;99.90
9915;DHT22;4996;48.746;9.174;2023-06-10T04:06:01;18.90;99.90
9915;DHT22;4996;48.746;9.174;2023-06-10T04:08:28;18.90;99.90
9915;DHT22;4996;48.746;9.174;2023-06-10T04:10:53;18.90;99.90
9915;DHT22;4996;48.746;9.174;2023-06-10T04:13:19;18.90;99.90
9915;DHT22;4996;48.746;9.174;2023-06-10T04:15:45;18.90;99.90
9915;DHT22;4996;48.746;9.174;2023-06-10T04:18:10;19.00;99.90
9915;DHT22;4996;48.746;9.174;2023-06-10T04:20:36;19.00;99.90
9915;DHT22;4996;48.746;9.174;2023-06-10T04:23:01;19.00;99.90
9915;DHT22;4996;48.746;9.174;2023-06-10T04:25:27;19.00;99.90
9915;DHT22;4996;48.746;9.174;2023-06-10T04:27:54;19.00;99.90
9915;DHT22;4996;48.746;9.174;2023-06-10T04:30:19;19.00;99.90
9915;DHT22;4996;48.746;9.174;2023-06-10T04:32:45;19.10;99.90
9915;DHT22;4996;48.746;9.174;2023-06-10T04:35:12;19.10;99.90
9915;DHT22;4996;48.746;9.174;2023-06-10T04:37:38;19.10;99.90
9915;DHT22;4996;48.746;9.174;2023-06-10T04:40:04;19.20;99.90
9915;DHT22;4996;48.746;9.174;2023-06-10T04:42:30;19.20;99.90
9915;DHT22;4996;48.746;9.174;2023-06-10T04:44:56;19.20;99.90
9915;DHT22;4996;48.746;9.174;2023-06-10T04:47:22;19.30;99.90
9915;DHT22;4996;48.746;9.174;2023-06-10T04:49:48;19.30;99.90
9915;DHT22;4996;48.746;9.174;2023-06-10T04:52:14;19.30;99.90
9915;DHT22;4996;48.746;9.174;2023-06-10T04:54:39;19.30;99.90
9915;DHT22;4996;48.746;9.174;2023-06-10T04:57:06;19.40;99.90
9915;DHT22;4996;48.746;9.174;2023-06-10T04:59:33;19.50;99.90
9915;DHT22;4996;48.746;9.174;2023-06-10T05:01:58;19.50;99.90
9915;DHT22;4996;48.746;9.174;2023-06-10T05:04:24;19.50;99.90
9915;DHT22;4996;48.746;9.174;2023-06-10T05:06:50;19.60;99.90
9915;DHT22;4996;48.746;9.174;2023-06-10T05:09:15;19.60;99.90
9915;DHT22;4996;48.746;9.174;2023-06-10T05:11:41;19.70;99.90
9915;DHT22;4996;48.746;9.174;2023-06-10T05:14:06;19.80;99.90
9915;DHT22;4996;48.746;9.174;2023-06-10T05:16:32;19.90;99.90
9915;DHT22;4996;48.746;9.174;2023-06-10T05:18:57;19.90;99.90
9915;DHT22;4996;48.746;9.174;2023-06-10T05:21:23;20.00;99.90
9915;DHT22;4996;48.746;9.174;2023-06-10T05:23:49;20.10;99.90
9915;DHT22;4996;48.746;9.174;2023-06-10T05:26:15;20.10;99.90
9915;DHT22;4996;48.746;9.174;2023-06-10T05:28:40;20.10;99.90
9915;DHT22;4996;48.746;9.174;2023-06-10T05:31:06;20.20;99.90
9915;DHT22;4996;48.746;9.174;2023-06-10T05:33:31;20.30;99.90
9915;DHT22;4996;48.746;9.174;2023-06-10T05:35:56;20.30;99.90
9915;DHT22;4996;48.746;9.174;2023-06-10T05:38:22;20.30;99.90
9915;DHT22;4996;48.746;9.174;2023-06-10T05:40:47;20.40;99.90
9915;DHT22;4996;48.746;9.174;2023-06-10T05:43:13;20.50;99.90
9915;DHT22;4996;48.746;9.174;2023-06-10T05:45:39;20.50;99.90
9915;DHT22;4996;48.746;9.174;2023-06-10T05:48:05;20.60;99.90
9915;DHT22;4996;48.746;9.174;2023-06-10T05:50:31;20.60;99.90
9915;DHT22;4996;48.746;9.174;2023-06-10T05:53:00;20.70;99.90
9915;DHT22;4996;48.746;9.174;2023-06-10T05:55:25;20.70;99.90
9915;DHT22;4996;48.746;9.174;2023-06-10T05:57:58;20.80;99.90
9915;DHT22;4996;48.746;9.174;2023-06-10T06:00:25;20.90;99.90
9915;DHT22;4996;48.746;9.174;2023-06-10T06:02:51;21.00;99.90
9915;DHT22;4996;48.746;9.174;2023-06-10T06:05:18;21.00;99.90
9915;DHT22;4996;48.746;9.174;2023-06-10T06:07:43;21.10;99.90
9915;DHT22;4996;48.746;9.174;2023-06-10T06:10:09;21.20;99.90
9915;DHT22;4996;48.746;9.174;2023-06-10T06:12:34;21.20;99.90
9915;DHT22;4996;48.746;9.174;2023-06-10T06:15:00;21.30;99.90
9915;DHT22;4996;48.746;9.174;2023-06-10T06:17:25;21.30;99.90
9915;DHT22;4996;48.746;9.174;2023-06-10T06:19:51;21.30;99.90
9915;DHT22;4996;48.746;9.174;2023-06-10T06:22:17;21.40;99.90
9915;DHT22;4996;48.746;9.174;2023-06-10T06:24:46;21.40;99.90
9915;DHT22;4996;48.746;9.174;2023-06-10T06:27:12;21.30;99.90
9915;DHT22;4996;48.746;9.174;2023-06-10T06:29:37;21.40;99.90
9915;DHT22;4996;48.746;9.174;2023-06-10T06:32:03;21.50;99.90
9915;DHT22;4996;48.746;9.174;2023-06-10T06:34:29;21.60;99.90
9915;DHT22;4996;48.746;9.174;2023-06-10T06:36:54;21.70;99.90
9915;DHT22;4996;48.746;9.174;2023-06-10T06:39:20;21.70;99.90
9915;DHT22;4996;48.746;9.174;2023-06-10T06:41:45;21.80;99.90
9915;DHT22;4996;48.746;9.174;2023-06-10T06:44:11;21.90;99.90
9915;DHT22;4996;48.746;9.174;2023-06-10T06:46:36;22.00;99.90
9915;DHT22;4996;48.746;9.174;2023-06-10T06:49:02;21.90;99.90
9915;DHT22;4996;48.746;9.174;2023-06-10T06:51:27;21.60;99.90
9915;DHT22;4996;48.746;9.174;2023-06-10T06:53:53;21.70;99.90
9915;DHT22;4996;48.746;9.174;2023-06-10T06:56:22;21.90;99.90
9915;DHT22;4996;48.746;9.174;2023-06-10T06:58:47;22.10;99.90
9915;DHT22;4996;48.746;9.174;2023-06-10T07:01:13;22.20;99.90
9915;DHT22;4996;48.746;9.174;2023-06-10T07:03:38;22.30;99.90
9915;DHT22;4996;48.746;9.174;2023-06-10T07:06:04;22.40;99.90
9915;DHT22;4996;48.746;9.174;2023-06-10T07:08:29;22.60;99.90
9915;DHT22;4996;48.746;9.174;2023-06-10T07:10:55;22.30;99.90
9915;DHT22;4996;48.746;9.174;2023-06-10T07:13:21;22.60;99.90
9915;DHT22;4996;48.746;9.174;2023-06-10T07:15:46;22.80;99.90
9915;DHT22;4996;48.746;9.174;2023-06-10T07:18:14;22.90;99.90
9915;DHT22;4996;48.746;9.174;2023-06-10T07:20:40;23.00;99.90
9915;DHT22;4996;48.746;9.174;2023-06-10T07:23:06;23.10;99.90
9915;DHT22;4996;48.746;9.174;2023-06-10T07:25:32;23.20;99.90
9915;DHT22;4996;48.746;9.174;2023-06-10T07:27:57;23.20;99.90
9915;DHT22;4996;48.746;9.174;2023-06-10T07:30:23;23.30;99.90
9915;DHT22;4996;48.746;9.174;2023-06-10T07:32:48;23.20;99.90
9915;DHT22;4996;48.746;9.174;2023-06-10T07:35:14;23.10;99.90
9915;DHT22;4996;48.746;9.174;2023-06-10T07:37:39;23.30;99.90
9915;DHT22;4996;48.746;9.174;2023-06-10T07:40:05;23.40;99.90
9915;DHT22;4996;48.746;9.174;2023-06-10T07:42:37;23.60;99.90
9915;DHT22;4996;48.746;9.174;2023-06-10T07:45:04;23.70;99.90
9915;DHT22;4996;48.746;9.174;2023-06-10T07:47:30;23.90;99.90
9915;DHT22;4996;48.746;9.174;2023-06-10T07:49:56;24.00;99.90
9915;DHT22;4996;48.746;9.174;2023-06-10T07:52:21;24.00;99.90
9915;DHT22;4996;48.746;9.174;2023-06-10T07:54:47;23.90;99.90
9915;DHT22;4996;48.746;9.174;2023-06-10T07:57:12;23.90;99.90
9915;DHT22;4996;48.746;9.174;2023-06-10T07:59:38;24.30;99.90
9915;DHT22;4996;48.746;9.174;2023-06-10T08:02:04;24.80;99.90
9915;DHT22;4996;48.746;9.174;2023-06-10T08:04:30;24.90;99.90
9915;DHT22;4996;48.746;9.174;2023-06-10T08:06:56;25.20;99.90
9915;DHT22;4996;48.746;9.174;2023-06-10T08:09:21;25.50;99.90
9915;DHT22;4996;48.746;9.174;2023-06-10T08:11:48;25.80;99.90
9915;DHT22;4996;48.746;9.174;2023-06-10T08:14:14;25.80;99.90
9915;DHT22;4996;48.746;9.174;2023-06-10T08:16:40;25.90;99.90
9915;DHT22;4996;48.746;9.174;2023-06-10T08:19:05;26.30;99.90
9915;DHT22;4996;48.746;9.174;2023-06-10T08:21:31;26.60;99.90
9915;DHT22;4996;48.746;9.174;2023-06-10T08:23:57;26.60;99.90
9915;DHT22;4996;48.746;9.174;2023-06-10T08:26:23;26.70;99.90
9915;DHT22;4996;48.746;9.174;2023-06-10T08:28:49;26.40;99.90
9915;DHT22;4996;48.746;9.174;2023-06-10T08:31:15;26.50;99.90
9915;DHT22;4996;48.746;9.174;2023-06-10T08:33:41;26.80;99.90
9915;DHT22;4996;48.746;9.174;2023-06-10T08:36:07;26.90;99.90
9915;DHT22;4996;48.746;9.174;2023-06-10T08:38:32;27.00;99.90
9915;DHT22;4996;48.746;9.174;2023-06-10T08:40:59;26.80;99.90
9915;DHT22;4996;48.746;9.174;2023-06-10T08:43:33;27.30;99.90
9915;DHT22;4996;48.746;9.174;2023-06-10T08:46:00;27.40;99.90
9915;DHT22;4996;48.746;9.174;2023-06-10T08:48:29;26.70;99.90
9915;DHT22;4996;48.746;9.174;2023-06-10T08:50:57;26.60;99.90
9915;DHT22;4996;48.746;9.174;2023-06-10T08:53:23;26.70;99.90
9915;DHT22;4996;48.746;9.174;2023-06-10T08:55:51;26.70;99.90
9915;DHT22;4996;48.746;9.174;2023-06-10T08:58:19;27.20;99.90
9915;DHT22;4996;48.746;9.174;2023-06-10T09:00:45;27.40;99.90
9915;DHT22;4996;48.746;9.174;2023-06-10T09:03:11;27.60;99.60
9915;DHT22;4996;48.746;9.174;2023-06-10T09:05:37;27.90;99.50
9915;DHT22;4996;48.746;9.174;2023-06-10T09:08:04;28.00;99.50
9915;DHT22;4996;48.746;9.174;2023-06-10T09:10:31;28.10;98.40
9915;DHT22;4996;48.746;9.174;2023-06-10T09:12:57;28.50;97.90
9915;DHT22;4996;48.746;9.174;2023-06-10T09:15:23;28.50;97.20
9915;DHT22;4996;48.746;9.174;2023-06-10T09:17:48;28.60;96.00
9915;DHT22;4996;48.746;9.174;2023-06-10T09:20:14;28.50;96.80
9915;DHT22;4996;48.746;9.174;2023-06-10T09:22:41;28.70;96.00
9915;DHT22;4996;48.746;9.174;2023-06-10T09:25:09;28.60;96.00
9915;DHT22;4996;48.746;9.174;2023-06-10T09:27:50;28.40;95.30
9915;DHT22;4996;48.746;9.174;2023-06-10T09:30:28;28.50;94.90
9915;DHT22;4996;48.746;9.174;2023-06-10T09:32:55;28.90;95.20
9915;DHT22;4996;48.746;9.174;2023-06-10T09:35:24;29.00;94.80
9915;DHT22;4996;48.746;9.174;2023-06-10T09:37:52;28.80;94.10
9915;DHT22;4996;48.746;9.174;2023-06-10T09:40:18;28.50;94.60
9915;DHT22;4996;48.746;9.174;2023-06-10T09:42:43;27.90;95.00
9915;DHT22;4996;48.746;9.174;2023-06-10T09:45:09;27.70;95.40
9915;DHT22;4996;48.746;9.174;2023-06-10T09:47:35;27.80;95.70
9915;DHT22;4996;48.746;9.174;2023-06-10T09:50:00;27.60;95.60
9915;DHT22;4996;48.746;9.174;2023-06-10T09:52:28;27.70;95.70
9915;DHT22;4996;48.746;9.174;2023-06-10T09:55:00;28.00;95.30
9915;DHT22;4996;48.746;9.174;2023-06-10T09:57:26;28.30;94.30
9915;DHT22;4996;48.746;9.174;2023-06-10T09:59:55;28.40;94.50
9915;DHT22;4996;48.746;9.174;2023-06-10T10:02:21;28.60;93.80
9915;DHT22;4996;48.746;9.174;2023-06-10T10:04:46;28.30;93.30
9915;DHT22;4996;48.746;9.174;2023-06-10T10:07:13;28.40;93.80
9915;DHT22;4996;48.746;9.174;2023-06-10T10:09:39;28.20;93.80
9915;DHT22;4996;48.746;9.174;2023-06-10T10:12:11;28.60;93.70
9915;DHT22;4996;48.746;9.174;2023-06-10T10:14:38;28.90;92.80
9915;DHT22;4996;48.746;9.174;2023-06-10T10:17:11;29.30;92.90
9915;DHT22;4996;48.746;9.174;2023-06-10T10:20:03;28.90;91.90
9915;DHT22;4996;48.746;9.174;2023-06-10T10:22:38;28.90;92.00
9915;DHT22;4996;48.746;9.174;2023-06-10T10:25:16;28.90;92.00
9915;DHT22;4996;48.746;9.174;2023-06-10T10:27:50;28.60;91.40
9915;DHT22;4996;48.746;9.174;2023-06-10T10:30:20;28.40;92.10
9915;DHT22;4996;48.746;9.174;2023-06-10T10:35:21;28.90;91.90
9915;DHT22;4996;48.746;9.174;2023-06-10T10:37:52;29.20;91.00
9915;DHT22;4996;48.746;9.174;2023-06-10T10:40:18;29.50;91.30
9915;DHT22;4996;48.746;9.174;2023-06-10T10:42:44;29.60;91.40
9915;DHT22;4996;48.746;9.174;2023-06-10T10:45:10;29.70;91.10
9915;DHT22;4996;48.746;9.174;2023-06-10T10:47:36;29.40;90.80
9915;DHT22;4996;48.746;9.174;2023-06-10T10:50:16;29.10;91.30
9915;DHT22;4996;48.746;9.174;2023-06-10T10:52:51;28.40;92.00
9915;DHT22;4996;48.746;9.174;2023-06-10T10:55:18;28.10;92.40
9915;DHT22;4996;48.746;9.174;2023-06-10T10:57:43;28.00;92.40
9915;DHT22;4996;48.746;9.174;2023-06-10T11:00:09;27.90;92.40
9915;DHT22;4996;48.746;9.174;2023-06-10T11:02:43;28.00;92.20
9915;DHT22;4996;48.746;9.174;2023-06-10T11:05:11;28.00;92.30
9915;DHT22;4996;48.746;9.174;2023-06-10T11:07:37;28.10;91.90
9915;DHT22;4996;48.746;9.174;2023-06-10T11:10:10;28.00;91.40
9915;DHT22;4996;48.746;9.174;2023-06-10T11:12:54;28.10;91.60
9915;DHT22;4996;48.746;9.174;2023-06-10T11:15:24;28.30;91.50
9915;DHT22;4996;48.746;9.174;2023-06-10T11:26:21;29.90;89.20
9915;DHT22;4996;48.746;9.174;2023-06-10T11:33:53;32.00;86.00
9915;DHT22;4996;48.746;9.174;2023-06-10T11:36:19;32.80;84.00
9915;DHT22;4996;48.746;9.174;2023-06-10T11:38:44;32.90;82.20
9915;DHT22;4996;48.746;9.174;2023-06-10T11:41:11;32.30;81.90
9915;DHT22;4996;48.746;9.174;2023-06-10T11:43:38;31.80;82.90
9915;DHT22;4996;48.746;9.174;2023-06-10T11:46:06;31.90;81.70
9915;DHT22;4996;48.746;9.174;2023-06-10T11:48:33;31.50;81.40
9915;DHT22;4996;48.746;9.174;2023-06-10T11:50:59;31.20;81.10
9915;DHT22;4996;48.746;9.174;2023-06-10T11:53:25;30.60;81.20
9915;DHT22;4996;48.746;9.174;2023-06-10T11:55:51;30.00;84.70
9915;DHT22;4996;48.746;9.174;2023-06-10T11:58:20;30.30;82.70
9915;DHT22;4996;48.746;9.174;2023-06-10T12:00:56;30.90;81.90
9915;DHT22;4996;48.746;9.174;2023-06-10T12:03:24;31.50;79.80
9915;DHT22;4996;48.746;9.174;2023-06-10T12:06:00;31.80;78.90
9915;DHT22;4996;48.746;9.174;2023-06-10T12:08:26;32.40;78.40
9915;DHT22;4996;48.746;9.174;2023-06-10T12:10:52;33.10;75.60
9915;DHT22;4996;48.746;9.174;2023-06-10T12:13:18;32.50;76.70
9915;DHT22;4996;48.746;9.174;2023-06-10T12:15:44;33.30;76.30
9915;DHT22;4996;48.746;9.174;2023-06-10T12:18:23;33.50;74.40
9915;DHT22;4996;48.746;9.174;2023-06-10T12:20:50;32.30;74.10
9915;DHT22;4996;48.746;9.174;2023-06-10T12:23:17;32.60;74.70
9915;DHT22;4996;48.746;9.174;2023-06-10T12:25:50;33.70;73.90
9915;DHT22;4996;48.746;9.174;2023-06-10T12:28:17;34.50;72.50
9915;DHT22;4996;48.746;9.174;2023-06-10T12:30:44;35.00;70.80
9915;DHT22;4996;48.746;9.174;2023-06-10T12:33:17;35.10;70.90
9915;DHT22;4996;48.746;9.174;2023-06-10T12:35:48;35.80;69.50
9915;DHT22;4996;48.746;9.174;2023-06-10T12:38:14;35.60;67.50
9915;DHT22;4996;48.746;9.174;2023-06-10T12:40:40;35.00;67.70
9915;DHT22;4996;48.746;9.174;2023-06-10T12:43:06;34.20;68.00
9915;DHT22;4996;48.746;9.174;2023-06-10T12:45:34;33.90;68.80
9915;DHT22;4996;48.746;9.174;2023-06-10T12:48:19;33.00;69.60
9915;DHT22;4996;48.746;9.174;2023-06-10T12:50:51;32.80;70.80
9915;DHT22;4996;48.746;9.174;2023-06-10T12:53:18;32.80;71.60
9915;DHT22;4996;48.746;9.174;2023-06-10T12:55:45;33.50;70.70
9915;DHT22;4996;48.746;9.174;2023-06-10T12:58:11;33.50;70.10
9915;DHT22;4996;48.746;9.174;2023-06-10T13:00:37;33.50;69.30
9915;DHT22;4996;48.746;9.174;2023-06-10T13:03:02;33.50;69.10
9915;DHT22;4996;48.746;9.174;2023-06-10T13:05:31;33.10;69.60
9915;DHT22;4996;48.746;9.174;2023-06-10T13:07:57;32.70;70.20
9915;DHT22;4996;48.746;9.174;2023-06-10T13:10:23;32.50;71.30
9915;DHT22;4996;48.746;9.174;2023-06-10T13:12:51;32.60;70.90
9915;DHT22;4996;48.746;9.174;2023-06-10T13:15:17;33.30;70.60
9915;DHT22;4996;48.746;9.174;2023-06-10T13:17:46;33.50;69.10
9915;DHT22;4996;48.746;9.174;2023-06-10T13:20:16;34.00;69.40
9915;DHT22;4996;48.746;9.174;2023-06-10T13:22:42;34.80;67.20
9915;DHT22;4996;48.746;9.174;2023-06-10T13:25:08;35.30;66.50
9915;DHT22;4996;48.746;9.174;2023-06-10T13:27:35;35.70;65.90
9915;DHT22;4996;48.746;9.174;2023-06-10T13:30:00;35.80;65.40
9915;DHT22;4996;48.746;9.174;2023-06-10T13:32:26;35.00;65.40
9915;DHT22;4996;48.746;9.174;2023-06-10T13:34:51;34.00;65.80
9915;DHT22;4996;48.746;9.174;2023-06-10T13:37:18;33.40;67.00
9915;DHT22;4996;48.746;9.174;2023-06-10T13:39:45;33.10;66.70
9915;DHT22;4996;48.746;9.174;2023-06-10T13:42:14;32.30;67.50
9915;DHT22;4996;48.746;9.174;2023-06-10T13:44:39;31.90;68.20
9915;DHT22;4996;48.746;9.174;2023-06-10T13:47:05;32.30;67.80
9915;DHT22;4996;48.746;9.174;2023-06-10T13:49:32;32.80;67.70
9915;DHT22;4996;48.746;9.174;2023-06-10T13:51:57;33.10;67.00
9915;DHT22;4996;48.746;9.174;2023-06-10T13:54:23;32.90;67.10
9915;DHT22;4996;48.746;9.174;2023-06-10T13:56:48;32.50;68.40
9915;DHT22;4996;48.746;9.174;2023-06-10T13:59:14;31.90;68.70
9915;DHT22;4996;48.746;9.174;2023-06-10T14:01:39;31.80;68.70
9915;DHT22;4996;48.746;9.174;2023-06-10T14:04:06;31.30;70.40
9915;DHT22;4996;48.746;9.174;2023-06-10T14:06:32;31.20;69.70
9915;DHT22;4996;48.746;9.174;2023-06-10T14:08:59;31.00;69.60
9915;DHT22;4996;48.746;9.174;2023-06-10T14:11:24;31.20;69.50
9915;DHT22;4996;48.746;9.174;2023-06-10T14:13:50;31.10;69.90
9915;DHT22;4996;48.746;9.174;2023-06-10T14:16:15;30.80;69.40
9915;DHT22;4996;48.746;9.174;2023-06-10T14:18:40;30.80;70.00
9915;DHT22;4996;48.746;9.174;2023-06-10T14:21:06;30.90;69.40
9915;DHT22;4996;48.746;9.174;2023-06-10T14:23:31;30.80;69.80
9915;DHT22;4996;48.746;9.174;2023-06-10T14:25:57;30.70;70.10
9915;DHT22;4996;48.746;9.174;2023-06-10T14:28:24;30.50;70.30
9915;DHT22;4996;48.746;9.174;2023-06-10T14:30:51;30.20;71.10
9915;DHT22;4996;48.746;9.174;2023-06-10T14:33:17;30.20;71.40
9915;DHT22;4996;48.746;9.174;2023-06-10T14:35:42;30.20;70.80
9915;DHT22;4996;48.746;9.174;2023-06-10T14:38:08;30.00;71.60
9915;DHT22;4996;48.746;9.174;2023-06-10T14:40:34;30.00;71.30
9915;DHT22;4996;48.746;9.174;2023-06-10T14:42:59;30.00;71.40
9915;DHT22;4996;48.746;9.174;2023-06-10T14:45:26;29.60;70.60
9915;DHT22;4996;48.746;9.174;2023-06-10T14:47:52;29.80;69.30
9915;DHT22;4996;48.746;9.174;2023-06-10T14:50:17;29.80;69.40
9915;DHT22;4996;48.746;9.174;2023-06-10T14:52:43;29.10;71.20
9915;DHT22;4996;48.746;9.174;2023-06-10T14:55:08;29.10;72.30
9915;DHT22;4996;48.746;9.174;2023-06-10T14:57:34;29.30;72.40
9915;DHT22;4996;48.746;9.174;2023-06-10T15:00:00;29.40;73.40
9915;DHT22;4996;48.746;9.174;2023-06-10T15:02:25;29.30;73.70
9915;DHT22;4996;48.746;9.174;2023-06-10T15:04:52;29.10;73.10
9915;DHT22;4996;48.746;9.174;2023-06-10T15:07:17;29.00;74.00
9915;DHT22;4996;48.746;9.174;2023-06-10T15:09:43;28.70;74.00
9915;DHT22;4996;48.746;9.174;2023-06-10T15:12:09;28.60;73.70
9915;DHT22;4996;48.746;9.174;2023-06-10T15:14:35;28.60;73.10
9915;DHT22;4996;48.746;9.174;2023-06-10T15:17:01;28.50;73.30
9915;DHT22;4996;48.746;9.174;2023-06-10T15:19:27;28.20;74.80
9915;DHT22;4996;48.746;9.174;2023-06-10T15:21:53;28.40;75.10
9915;DHT22;4996;48.746;9.174;2023-06-10T15:24:19;28.60;75.00
9915;DHT22;4996;48.746;9.174;2023-06-10T15:26:44;28.60;73.80
9915;DHT22;4996;48.746;9.174;2023-06-10T15:29:10;28.40;73.60
9915;DHT22;4996;48.746;9.174;2023-06-10T15:31:36;28.50;74.30
9915;DHT22;4996;48.746;9.174;2023-06-10T15:34:02;28.60;74.00
9915;DHT22;4996;48.746;9.174;2023-06-10T15:36:27;28.50;73.60
9915;DHT22;4996;48.746;9.174;2023-06-10T15:38:54;28.60;74.40
9915;DHT22;4996;48.746;9.174;2023-06-10T15:41:19;28.50;74.10
9915;DHT22;4996;48.746;9.174;2023-06-10T15:43:45;28.70;74.50
9915;DHT22;4996;48.746;9.174;2023-06-10T15:46:12;28.80;74.20
9915;DHT22;4996;48.746;9.174;2023-06-10T15:48:37;28.50;74.10
9915;DHT22;4996;48.746;9.174;2023-06-10T15:51:03;28.60;74.40
9915;DHT22;4996;48.746;9.174;2023-06-10T15:53:28;28.60;74.90
9915;DHT22;4996;48.746;9.174;2023-06-10T15:55:54;28.60;75.50
9915;DHT22;4996;48.746;9.174;2023-06-10T15:58:20;28.70;76.50
9915;DHT22;4996;48.746;9.174;2023-06-10T16:00:45;28.60;75.90
9915;DHT22;4996;48.746;9.174;2023-06-10T16:03:11;28.70;75.30
9915;DHT22;4996;48.746;9.174;2023-06-10T16:05:36;28.50;75.80
9915;DHT22;4996;48.746;9.174;2023-06-10T16:08:02;28.50;74.70
9915;DHT22;4996;48.746;9.174;2023-06-10T16:10:27;28.70;74.00
9915;DHT22;4996;48.746;9.174;2023-06-10T16:12:53;28.50;73.20
9915;DHT22;4996;48.746;9.174;2023-06-10T16:15:18;28.60;73.90
9915;DHT22;4996;48.746;9.174;2023-06-10T16:17:44;28.50;73.10